Time;durP1;ratioP1;P1;durP2;ratioP2;P2;SDS_P1;SDS_P2;PMS_P1;PMS_P2;Temp;Humidity;BMP_temperature;BMP_pressure;BME280_temperature;BME280_humidity;BME280_pressure;Samples;Min_cycle;Max_cycle;Signal;HPM_P1;HPM_P2
2024/02/03 00:00:15;;;;;;;24.70;15.77;;;8.70;99.90;;;;;;5092726;28;20193;-72
2024/02/03 00:02:40;;;;;;;19.67;16.07;;;8.70;99.90;;;;;;5093081;28;20166;-72
2024/02/03 00:05:07;;;;;;;21.00;15.40;;;8.70;99.90;;;;;;5092761;28;20201;-72
2024/02/03 00:07:32;;;;;;;20.83;15.47;;;8.70;99.90;;;;;;5093050;28;20166;-72
2024/02/03 00:09:58;;;;;;;22.10;16.20;;;8.70;99.90;;;;;;5092346;28;20498;-72
2024/02/03 00:12:28;;;;;;;19.43;15.63;;;8.70;99.90;;;;;;5092824;28;20214;-72
2024/02/03 00:14:54;;;;;;;15.77;13.87;;;8.70;99.90;;;;;;5092377;28;20195;-71
2024/02/03 00:17:20;;;;;;;19.73;15.60;;;8.70;99.90;;;;;;5091720;28;20169;-72
2024/02/03 00:19:46;;;;;;;17.27;13.33;;;8.70;99.90;;;;;;5092369;28;20705;-71
2024/02/03 00:22:11;;;;;;;22.33;15.37;;;8.70;99.90;;;;;;5091223;28;20174;-72
2024/02/03 00:24:37;;;;;;;19.00;15.53;;;8.70;99.90;;;;;;5092603;28;20193;-72
2024/02/03 00:27:04;;;;;;;19.03;15.23;;;8.70;99.90;;;;;;5092547;28;20275;-71
2024/02/03 00:29:30;;;;;;;22.30;15.73;;;8.70;99.90;;;;;;5092559;28;20264;-72
2024/02/03 00:31:56;;;;;;;20.17;15.73;;;8.70;99.90;;;;;;5092902;28;20260;-72
2024/02/03 00:34:22;;;;;;;19.60;15.50;;;8.70;99.90;;;;;;5094801;28;20223;-72
2024/02/03 00:36:47;;;;;;;21.27;16.73;;;8.70;99.90;;;;;;5093190;28;20265;-72
2024/02/03 00:39:13;;;;;;;21.37;15.67;;;8.70;99.90;;;;;;5092305;28;20190;-72
2024/02/03 00:41:39;;;;;;;19.83;15.37;;;8.70;99.90;;;;;;5092598;28;20548;-72
2024/02/03 00:44:05;;;;;;;18.23;15.43;;;8.70;99.90;;;;;;5092322;28;20190;-73
2024/02/03 00:46:30;;;;;;;22.23;16.83;;;8.70;99.90;;;;;;5092349;28;20177;-73
2024/02/03 00:48:56;;;;;;;17.67;14.30;;;8.70;99.90;;;;;;5092235;28;20546;-73
2024/02/03 00:51:21;;;;;;;21.77;16.63;;;8.70;99.90;;;;;;5092249;28;20166;-72
2024/02/03 00:53:47;;;;;;;21.20;16.97;;;8.70;99.90;;;;;;5092018;28;20208;-74
2024/02/03 00:56:13;;;;;;;20.37;15.93;;;8.70;99.90;;;;;;5092231;28;20169;-72
2024/02/03 00:58:39;;;;;;;17.60;15.03;;;8.60;99.90;;;;;;5092380;28;20166;-73
2024/02/03 01:01:04;;;;;;;20.23;15.40;;;8.70;99.90;;;;;;5091743;28;20201;-73
2024/02/03 01:03:30;;;;;;;15.93;13.67;;;8.70;99.90;;;;;;5092004;28;20193;-73
2024/02/03 01:05:56;;;;;;;17.27;14.77;;;8.70;99.90;;;;;;5092107;28;20208;-73
2024/02/03 01:08:21;;;;;;;20.07;15.67;;;8.70;99.90;;;;;;5091859;28;20211;-74
2024/02/03 01:10:47;;;;;;;19.83;14.67;;;8.70;99.90;;;;;;5091643;28;20706;-73
2024/02/03 01:13:13;;;;;;;15.70;14.07;;;8.70;99.90;;;;;;5091384;28;20204;-72
2024/02/03 01:15:39;;;;;;;20.00;14.77;;;8.70;99.90;;;;;;5091547;28;20170;-73
2024/02/03 01:18:04;;;;;;;17.73;14.17;;;8.70;99.90;;;;;;5092044;28;20177;-72
2024/02/03 01:20:32;;;;;;;21.53;16.60;;;8.70;99.90;;;;;;5091442;28;20205;-72
2024/02/03 01:22:57;;;;;;;15.90;13.83;;;8.70;99.90;;;;;;5091838;28;20619;-73
2024/02/03 01:25:23;;;;;;;17.00;14.20;;;8.80;99.90;;;;;;5091482;28;20193;-72
2024/02/03 01:27:48;;;;;;;18.30;14.33;;;8.70;99.90;;;;;;5091489;28;20180;-72
2024/02/03 01:30:14;;;;;;;17.33;14.47;;;8.70;99.90;;;;;;5091086;28;20643;-72
2024/02/03 01:32:40;;;;;;;16.57;13.40;;;8.70;99.90;;;;;;5091539;28;20173;-72
2024/02/03 01:35:06;;;;;;;17.93;14.73;;;8.70;99.90;;;;;;5091240;28;20754;-73
2024/02/03 01:37:31;;;;;;;17.73;14.67;;;8.70;99.90;;;;;;5090452;28;20177;-72
2024/02/03 01:39:57;;;;;;;15.80;13.10;;;8.70;99.90;;;;;;5091188;28;20212;-73
2024/02/03 01:42:22;;;;;;;18.07;13.07;;;8.70;99.90;;;;;;5090984;28;20654;-72
2024/02/03 01:44:48;;;;;;;17.77;14.30;;;8.70;99.90;;;;;;5091260;28;20272;-72
2024/02/03 01:47:15;;;;;;;18.17;13.80;;;8.70;99.90;;;;;;5091346;28;20248;-74
2024/02/03 01:49:41;;;;;;;14.90;12.80;;;8.70;99.90;;;;;;5091209;28;20660;-72
2024/02/03 01:52:08;;;;;;;14.63;13.13;;;8.70;99.90;;;;;;5091675;28;20660;-73
2024/02/03 01:54:35;;;;;;;17.73;13.73;;;8.70;99.90;;;;;;5092212;28;20316;-72
2024/02/03 01:57:01;;;;;;;16.90;14.23;;;8.70;99.90;;;;;;5091473;28;20547;-70
2024/02/03 01:59:28;;;;;;;16.30;13.13;;;8.70;99.90;;;;;;5091700;28;20693;-73
2024/02/03 02:01:59;;;;;;;16.07;13.63;;;8.70;99.90;;;;;;5091359;28;20654;-72
2024/02/03 02:04:26;;;;;;;15.60;13.07;;;8.70;99.90;;;;;;5091338;28;20204;-72
2024/02/03 02:06:52;;;;;;;15.73;12.70;;;8.70;99.90;;;;;;5091119;28;20234;-72
2024/02/03 02:09:21;;;;;;;14.27;12.73;;;8.70;99.90;;;;;;5090614;28;20260;-71
2024/02/03 02:11:47;;;;;;;16.50;13.53;;;8.70;99.90;;;;;;5091323;28;20182;-72
2024/02/03 02:14:13;;;;;;;17.07;13.13;;;8.80;99.90;;;;;;5090520;28;20196;-72
2024/02/03 02:16:39;;;;;;;13.63;12.13;;;8.80;99.90;;;;;;5091239;28;20253;-73
2024/02/03 02:19:05;;;;;;;13.40;11.07;;;8.80;99.90;;;;;;5090894;28;20664;-72
2024/02/03 02:21:30;;;;;;;14.20;12.03;;;8.80;99.90;;;;;;5090972;28;20174;-73
2024/02/03 02:23:57;;;;;;;13.27;11.80;;;8.80;99.90;;;;;;5090964;28;20215;-73
2024/02/03 02:26:23;;;;;;;14.60;11.70;;;8.80;99.90;;;;;;5091230;28;20668;-73
2024/02/03 02:28:49;;;;;;;13.87;12.23;;;8.80;99.90;;;;;;5093631;28;20193;-73
2024/02/03 02:31:14;;;;;;;15.77;12.83;;;8.80;99.90;;;;;;5094835;28;20237;-73
2024/02/03 02:33:40;;;;;;;15.87;13.03;;;8.80;99.90;;;;;;5095068;28;20578;-73
2024/02/03 02:36:05;;;;;;;15.33;13.10;;;8.80;99.90;;;;;;5094887;28;20686;-72
2024/02/03 02:38:31;;;;;;;13.13;11.37;;;8.80;99.90;;;;;;5094444;28;20231;-73
2024/02/03 02:40:57;;;;;;;15.30;13.40;;;8.80;99.90;;;;;;5094674;28;20209;-72
2024/02/03 02:43:22;;;;;;;13.53;11.97;;;8.80;99.90;;;;;;5093290;28;20170;-72
2024/02/03 02:45:48;;;;;;;15.27;12.87;;;8.80;99.90;;;;;;5095025;28;20170;-72
2024/02/03 02:48:13;;;;;;;16.57;13.03;;;8.80;99.90;;;;;;5094888;28;20161;-72
2024/02/03 02:50:39;;;;;;;17.67;14.00;;;8.80;99.90;;;;;;5094332;28;20180;-73
2024/02/03 02:53:07;;;;;;;17.07;13.47;;;8.80;99.90;;;;;;5094138;28;20591;-72
2024/02/03 02:55:32;;;;;;;13.23;10.73;;;8.80;99.90;;;;;;5094523;28;20178;-73
2024/02/03 02:57:58;;;;;;;13.97;12.23;;;8.90;99.90;;;;;;5093983;28;20700;-73
2024/02/03 03:00:23;;;;;;;14.87;12.33;;;8.90;99.90;;;;;;5093787;28;20201;-72
2024/02/03 03:02:49;;;;;;;11.33;9.63;;;8.90;99.90;;;;;;5094063;28;20183;-72
2024/02/03 03:05:15;;;;;;;14.40;12.90;;;8.90;99.90;;;;;;5094260;28;20196;-72
2024/02/03 03:07:40;;;;;;;14.53;12.17;;;8.90;99.90;;;;;;5093812;28;20181;-73
2024/02/03 03:10:07;;;;;;;12.90;11.57;;;8.90;99.90;;;;;;5093419;28;20166;-73
2024/02/03 03:12:33;;;;;;;15.10;12.20;;;8.90;99.90;;;;;;5093945;28;20174;-73
2024/02/03 03:14:59;;;;;;;12.23;11.00;;;8.90;99.90;;;;;;5093721;28;20238;-73
2024/02/03 03:17:24;;;;;;;11.17;9.97;;;9.00;99.90;;;;;;5094222;28;20177;-72
2024/02/03 03:19:50;;;;;;;12.63;11.33;;;8.90;99.90;;;;;;5094967;28;20280;-72
2024/02/03 03:22:17;;;;;;;11.53;10.33;;;8.90;99.90;;;;;;5094936;28;20246;-71
2024/02/03 03:24:43;;;;;;;16.67;10.53;;;9.00;99.90;;;;;;5093674;28;20272;-72
2024/02/03 03:27:09;;;;;;;14.00;10.70;;;9.00;99.90;;;;;;5093337;28;20253;-71
2024/02/03 03:29:35;;;;;;;10.87;9.67;;;9.00;99.90;;;;;;5093231;28;20287;-72
2024/02/03 03:32:00;;;;;;;12.60;10.43;;;9.00;99.90;;;;;;5093235;28;20184;-72
2024/02/03 03:34:26;;;;;;;11.50;9.77;;;9.10;99.90;;;;;;5093482;28;20270;-72
2024/02/03 03:36:51;;;;;;;11.13;9.27;;;9.10;99.90;;;;;;5093484;28;20261;-71
2024/02/03 03:39:17;;;;;;;16.03;10.60;;;9.10;99.90;;;;;;5092317;28;20201;-72
2024/02/03 03:41:43;;;;;;;14.10;10.17;;;9.20;99.90;;;;;;5093449;28;20639;-73
2024/02/03 03:44:08;;;;;;;12.70;10.37;;;9.20;99.90;;;;;;5093277;28;20194;-72
2024/02/03 03:46:34;;;;;;;11.73;10.37;;;9.20;99.90;;;;;;5093157;28;20177;-73
2024/02/03 03:48:59;;;;;;;10.77;9.60;;;9.20;99.90;;;;;;5093045;28;20634;-72
2024/02/03 03:51:25;;;;;;;13.43;10.70;;;9.30;99.90;;;;;;5092977;28;20170;-73
2024/02/03 03:53:50;;;;;;;11.93;10.07;;;9.30;99.90;;;;;;5093060;28;20278;-71
2024/02/03 03:56:16;;;;;;;12.37;9.90;;;9.30;99.90;;;;;;5091780;28;20566;-72
2024/02/03 03:58:42;;;;;;;10.00;9.00;;;9.30;99.90;;;;;;5092880;28;20165;-72
2024/02/03 04:01:11;;;;;;;13.37;11.23;;;9.40;99.90;;;;;;5092397;28;20232;-72
2024/02/03 04:03:36;;;;;;;16.00;10.97;;;9.40;99.90;;;;;;5093224;28;20193;-72
2024/02/03 04:06:02;;;;;;;11.70;10.60;;;9.40;99.90;;;;;;5092777;28;20166;-71
2024/02/03 04:08:27;;;;;;;13.00;10.90;;;9.40;99.90;;;;;;5092669;28;20166;-74
2024/02/03 04:10:53;;;;;;;12.83;11.00;;;9.40;99.90;;;;;;5092621;28;20197;-75
2024/02/03 04:13:19;;;;;;;15.87;11.40;;;9.50;99.90;;;;;;5092125;28;20177;-72
2024/02/03 04:15:45;;;;;;;15.00;12.50;;;9.50;99.90;;;;;;5092875;28;20665;-72
2024/02/03 04:18:11;;;;;;;15.37;11.13;;;9.50;99.90;;;;;;5092569;28;20638;-73
2024/02/03 04:20:36;;;;;;;12.87;11.57;;;9.60;99.90;;;;;;5092447;28;20204;-72
2024/02/03 04:23:02;;;;;;;14.60;11.67;;;9.60;99.90;;;;;;5092495;28;20193;-72
2024/02/03 04:25:28;;;;;;;15.40;11.83;;;9.60;99.90;;;;;;5092559;28;20653;-73
2024/02/03 04:27:53;;;;;;;16.13;11.67;;;9.60;99.90;;;;;;5092276;28;20216;-72
2024/02/03 04:30:19;;;;;;;11.90;10.50;;;9.60;99.90;;;;;;5092067;28;20703;-72
2024/02/03 04:32:45;;;;;;;14.00;12.10;;;9.60;99.90;;;;;;5092403;28;20287;-71
2024/02/03 04:35:11;;;;;;;12.23;10.97;;;9.60;99.90;;;;;;5092285;28;20193;-72
2024/02/03 04:37:36;;;;;;;10.67;9.67;;;9.60;99.90;;;;;;5092482;28;20169;-73
2024/02/03 04:40:03;;;;;;;11.50;10.30;;;9.60;99.90;;;;;;5092249;28;20288;-73
2024/02/03 04:42:29;;;;;;;11.93;10.13;;;9.60;99.90;;;;;;5093233;28;20174;-72
2024/02/03 04:44:54;;;;;;;11.17;9.93;;;9.60;99.90;;;;;;5093218;28;20623;-72
2024/02/03 04:47:20;;;;;;;14.00;10.50;;;9.60;99.90;;;;;;5091946;28;20165;-73
2024/02/03 04:49:45;;;;;;;10.53;9.43;;;9.60;99.90;;;;;;5091707;28;20527;-73
2024/02/03 04:52:12;;;;;;;11.23;10.03;;;9.60;99.90;;;;;;5091298;28;20169;-73
2024/02/03 04:54:38;;;;;;;13.37;10.23;;;9.70;99.90;;;;;;5091667;28;20827;-72
2024/02/03 04:57:03;;;;;;;12.63;11.00;;;9.60;99.90;;;;;;5092097;28;20248;-73
2024/02/03 04:59:29;;;;;;;11.27;10.07;;;9.70;99.90;;;;;;5091427;28;20201;-72
2024/02/03 05:01:55;;;;;;;12.17;10.87;;;9.60;99.90;;;;;;5091757;28;20646;-72
2024/02/03 05:04:20;;;;;;;12.37;10.13;;;9.60;99.90;;;;;;5091660;28;20223;-74
2024/02/03 05:06:46;;;;;;;10.80;9.80;;;9.70;99.90;;;;;;5091772;28;20211;-72
2024/02/03 05:09:11;;;;;;;12.13;10.03;;;9.70;99.90;;;;;;5091302;28;20193;-73
2024/02/03 05:11:37;;;;;;;10.93;9.80;;;9.70;99.90;;;;;;5091549;28;20658;-72
2024/02/03 05:14:03;;;;;;;11.30;10.10;;;9.70;99.90;;;;;;5091219;28;20193;-72
2024/02/03 05:16:28;;;;;;;11.00;9.57;;;9.70;99.90;;;;;;5091793;28;20173;-71
2024/02/03 05:18:55;;;;;;;10.90;9.83;;;9.70;99.90;;;;;;5091579;28;20169;-74
2024/02/03 05:21:21;;;;;;;10.50;9.43;;;9.70;99.90;;;;;;5090804;28;20294;-72
2024/02/03 05:23:46;;;;;;;10.50;9.40;;;9.70;99.90;;;;;;5091564;28;20204;-71
2024/02/03 05:26:12;;;;;;;11.97;9.30;;;9.70;99.90;;;;;;5091762;28;20532;-71
2024/02/03 05:28:38;;;;;;;10.93;9.83;;;9.70;99.90;;;;;;5091364;28;20204;-72
2024/02/03 05:31:03;;;;;;;10.47;9.47;;;9.70;99.90;;;;;;5091131;28;20684;-72
2024/02/03 05:33:30;;;;;;;10.17;9.27;;;9.70;99.90;;;;;;5091315;28;20204;-73
2024/02/03 05:35:56;;;;;;;10.80;9.67;;;9.70;99.90;;;;;;5091147;28;20290;-72
2024/02/03 05:38:22;;;;;;;11.37;10.17;;;9.70;99.90;;;;;;5091328;28;20256;-71
2024/02/03 05:40:47;;;;;;;10.83;9.50;;;9.70;99.90;;;;;;5091218;28;20204;-71
2024/02/03 05:43:13;;;;;;;11.77;10.23;;;9.70;99.90;;;;;;5090899;28;20218;-73
2024/02/03 05:45:39;;;;;;;10.77;9.70;;;9.70;99.90;;;;;;5091256;28;20223;-72
2024/02/03 05:48:05;;;;;;;10.43;9.17;;;9.70;99.90;;;;;;5091495;28;20169;-71
2024/02/03 05:50:30;;;;;;;11.90;10.30;;;9.70;99.90;;;;;;5090901;28;20174;-71
2024/02/03 05:52:56;;;;;;;12.90;10.83;;;9.70;99.90;;;;;;5091324;28;20173;-71
2024/02/03 05:55:22;;;;;;;12.13;10.37;;;9.70;99.90;;;;;;5090806;28;20303;-72
2024/02/03 05:57:51;;;;;;;10.27;9.27;;;9.80;99.90;;;;;;5091619;28;20171;-71
2024/02/03 06:00:18;;;;;;;10.80;9.40;;;9.80;99.90;;;;;;5090900;28;20239;-72
2024/02/03 06:02:48;;;;;;;11.47;10.27;;;9.80;99.90;;;;;;5094248;28;20222;-72
2024/02/03 06:05:15;;;;;;;11.47;10.00;;;9.80;99.90;;;;;;5095431;28;20568;-70
2024/02/03 06:07:41;;;;;;;12.03;10.43;;;9.80;99.90;;;;;;5096847;28;20165;-71
2024/02/03 06:10:07;;;;;;;11.43;10.10;;;9.80;99.90;;;;;;5094683;28;20246;-71
2024/02/03 06:12:33;;;;;;;11.70;9.53;;;9.90;99.90;;;;;;5095137;28;20170;-71
2024/02/03 06:14:58;;;;;;;10.27;9.23;;;9.90;99.90;;;;;;5094526;28;20196;-71
2024/02/03 06:17:24;;;;;;;10.77;9.73;;;9.90;99.90;;;;;;5094795;28;20173;-72
2024/02/03 06:19:50;;;;;;;10.33;9.23;;;9.90;99.90;;;;;;5094777;28;20260;-71
2024/02/03 06:22:16;;;;;;;10.40;9.40;;;9.90;99.90;;;;;;5094885;28;20255;-71
2024/02/03 06:24:42;;;;;;;10.50;9.47;;;9.90;99.90;;;;;;5094973;28;20650;-70
2024/02/03 06:27:07;;;;;;;10.30;8.93;;;9.90;99.90;;;;;;5094602;28;20537;-71
2024/02/03 06:29:33;;;;;;;12.63;9.80;;;9.90;99.90;;;;;;5094509;28;20184;-70
2024/02/03 06:31:58;;;;;;;11.13;9.83;;;9.90;99.90;;;;;;5094729;28;20252;-72
2024/02/03 06:34:24;;;;;;;10.20;9.10;;;9.90;99.90;;;;;;5094255;28;20816;-71
2024/02/03 06:36:50;;;;;;;11.07;9.97;;;9.90;99.90;;;;;;5094855;28;20177;-71
2024/02/03 06:39:16;;;;;;;9.87;8.97;;;10.00;99.90;;;;;;5093996;28;20280;-72
2024/02/03 06:41:42;;;;;;;10.63;9.10;;;10.00;99.90;;;;;;5094714;28;20250;-72
2024/02/03 06:44:09;;;;;;;9.60;8.67;;;9.90;99.90;;;;;;5094719;28;20192;-71
2024/02/03 06:46:35;;;;;;;11.00;10.00;;;9.90;99.90;;;;;;5094621;28;20162;-72
2024/02/03 06:49:00;;;;;;;9.63;8.63;;;9.80;99.90;;;;;;5094180;28;20215;-72
2024/02/03 06:51:26;;;;;;;10.03;9.03;;;9.80;99.90;;;;;;5094081;28;20252;-71
2024/02/03 06:53:51;;;;;;;11.50;10.33;;;9.70;99.90;;;;;;5092696;28;20296;-71
2024/02/03 06:56:17;;;;;;;11.10;10.03;;;9.70;99.90;;;;;;5094568;28;20234;-71
2024/02/03 06:58:43;;;;;;;11.17;10.00;;;9.60;99.90;;;;;;5094207;28;20519;-73
2024/02/03 07:01:08;;;;;;;11.83;10.60;;;9.60;99.90;;;;;;5094042;28;20587;-71
2024/02/03 07:03:34;;;;;;;16.67;10.43;;;9.50;99.90;;;;;;5093593;28;20550;-72
2024/02/03 07:05:59;;;;;;;13.30;11.90;;;9.50;99.90;;;;;;5093900;28;20654;-71
2024/02/03 07:08:25;;;;;;;14.53;11.00;;;9.50;99.90;;;;;;5094001;28;20174;-72
2024/02/03 07:10:51;;;;;;;13.87;12.17;;;9.60;99.90;;;;;;5093414;28;20182;-71
2024/02/03 07:13:16;;;;;;;12.30;10.70;;;9.60;99.90;;;;;;5091156;28;20524;-72
2024/02/03 07:15:42;;;;;;;16.03;12.53;;;9.60;99.90;;;;;;5093847;28;20169;-73
2024/02/03 07:18:07;;;;;;;14.33;12.27;;;9.70;99.90;;;;;;5093528;28;20646;-72
2024/02/03 07:20:33;;;;;;;13.17;11.20;;;9.70;99.90;;;;;;5093226;28;20201;-74
2024/02/03 07:22:59;;;;;;;14.03;10.10;;;9.70;99.90;;;;;;5093550;28;20162;-72
2024/02/03 07:25:24;;;;;;;14.33;11.60;;;9.70;99.90;;;;;;5091974;28;20193;-72
2024/02/03 07:27:50;;;;;;;14.97;11.40;;;9.70;99.90;;;;;;5095440;28;20173;-73
2024/02/03 07:30:15;;;;;;;14.90;10.53;;;9.80;99.90;;;;;;5094622;28;20191;-73
2024/02/03 07:32:42;;;;;;;11.30;10.10;;;9.80;99.90;;;;;;5093809;28;20559;-72
2024/02/03 07:35:08;;;;;;;11.77;10.33;;;9.80;99.90;;;;;;5093314;28;20269;-72
2024/02/03 07:37:35;;;;;;;12.90;10.70;;;9.80;99.90;;;;;;5093941;28;20690;-72
2024/02/03 07:40:00;;;;;;;11.90;10.53;;;9.90;99.90;;;;;;5093234;28;20288;-72
2024/02/03 07:42:26;;;;;;;17.47;10.63;;;9.90;99.90;;;;;;5093229;28;20265;-72
2024/02/03 07:44:52;;;;;;;12.10;10.77;;;9.90;99.90;;;;;;5093131;28;20189;-73
2024/02/03 07:47:17;;;;;;;14.67;10.90;;;9.90;99.90;;;;;;5093017;28;20584;-73
2024/02/03 07:49:43;;;;;;;12.27;10.87;;;10.00;99.90;;;;;;5092816;28;20238;-73
2024/02/03 07:52:09;;;;;;;13.37;10.47;;;10.00;99.90;;;;;;5093228;28;20208;-74
2024/02/03 07:54:34;;;;;;;12.60;9.70;;;10.00;99.90;;;;;;5093265;28;20208;-72
2024/02/03 07:57:00;;;;;;;15.70;10.37;;;10.00;99.90;;;;;;5093359;28;20653;-73
2024/02/03 07:59:27;;;;;;;14.47;10.60;;;10.10;99.90;;;;;;5091876;28;20213;-73
2024/02/03 08:01:53;;;;;;;12.13;10.40;;;10.10;99.90;;;;;;5093053;28;20162;-73
2024/02/03 08:04:18;;;;;;;11.80;10.60;;;10.20;99.90;;;;;;5092575;28;20198;-73
2024/02/03 08:06:44;;;;;;;13.17;10.27;;;10.20;99.90;;;;;;5093090;28;20161;-75
2024/02/03 08:09:10;;;;;;;12.17;10.47;;;10.30;99.90;;;;;;5092196;28;20163;-72
2024/02/03 08:11:35;;;;;;;9.60;8.63;;;10.30;99.90;;;;;;5092803;28;20249;-73
2024/02/03 08:14:01;;;;;;;9.40;8.50;;;10.40;99.90;;;;;;5092530;28;20202;-73
2024/02/03 08:16:26;;;;;;;11.77;9.20;;;10.40;99.90;;;;;;5092511;28;20180;-74
2024/02/03 08:18:52;;;;;;;13.60;9.70;;;10.40;99.90;;;;;;5092577;28;20197;-73
2024/02/03 08:21:18;;;;;;;9.90;8.90;;;10.40;99.90;;;;;;5091896;28;20193;-73
2024/02/03 08:23:43;;;;;;;9.43;8.53;;;10.40;99.90;;;;;;5092577;28;20666;-72
2024/02/03 08:26:10;;;;;;;10.50;8.80;;;10.40;99.90;;;;;;5090902;28;20245;-73
2024/02/03 08:28:35;;;;;;;9.20;8.30;;;10.50;99.90;;;;;;5090685;28;20177;-73
2024/02/03 08:31:01;;;;;;;9.60;8.70;;;10.50;99.90;;;;;;5091136;28;20550;-73
2024/02/03 08:33:27;;;;;;;10.40;9.30;;;10.50;99.90;;;;;;5091620;28;20181;-74
2024/02/03 08:35:52;;;;;;;14.47;9.70;;;10.50;99.90;;;;;;5092179;28;20181;-74
2024/02/03 08:38:18;;;;;;;11.03;9.40;;;10.40;99.90;;;;;;5091709;28;20177;-73
2024/02/03 08:40:44;;;;;;;10.70;9.20;;;10.40;99.90;;;;;;5091505;28;20205;-73
2024/02/03 08:43:11;;;;;;;11.63;10.47;;;10.40;99.90;;;;;;5091701;28;20336;-73
2024/02/03 08:45:37;;;;;;;12.70;9.87;;;10.30;99.90;;;;;;5092085;28;20193;-72
2024/02/03 08:48:03;;;;;;;14.00;10.17;;;10.30;99.90;;;;;;5092816;28;20197;-73
2024/02/03 08:50:28;;;;;;;9.07;8.17;;;10.30;99.90;;;;;;5092987;28;20196;-74
2024/02/03 08:52:54;;;;;;;10.90;9.80;;;10.30;99.90;;;;;;5094563;28;20290;-73
2024/02/03 08:55:19;;;;;;;12.27;9.47;;;10.30;99.90;;;;;;5090911;28;20209;-72
2024/02/03 08:57:45;;;;;;;11.37;10.17;;;10.40;99.90;;;;;;5091735;28;20181;-74
2024/02/03 09:00:11;;;;;;;11.90;10.33;;;10.50;99.90;;;;;;5091228;28;20197;-72
2024/02/03 09:02:37;;;;;;;12.23;9.97;;;10.40;99.90;;;;;;5091509;28;20313;-72
2024/02/03 09:05:03;;;;;;;13.43;11.00;;;10.50;99.90;;;;;;5091439;28;20251;-73
2024/02/03 09:07:28;;;;;;;12.63;9.80;;;10.40;99.90;;;;;;5091233;28;20174;-72
2024/02/03 09:09:54;;;;;;;11.07;9.97;;;10.50;99.90;;;;;;5090470;28;20199;-73
2024/02/03 09:12:20;;;;;;;14.57;10.40;;;10.50;99.90;;;;;;5090660;28;20173;-73
2024/02/03 09:14:46;;;;;;;11.17;9.33;;;10.50;99.90;;;;;;5090568;28;20204;-73
2024/02/03 09:17:12;;;;;;;11.57;9.97;;;10.60;99.90;;;;;;5091240;28;20181;-73
2024/02/03 09:19:38;;;;;;;11.80;10.47;;;10.60;99.90;;;;;;5090930;28;20613;-73
2024/02/03 09:22:03;;;;;;;13.60;10.63;;;10.50;99.90;;;;;;5090775;28;20176;-75
2024/02/03 09:24:29;;;;;;;13.27;10.97;;;10.50;99.90;;;;;;5091237;28;20242;-73
2024/02/03 09:26:54;;;;;;;11.60;10.30;;;10.50;99.90;;;;;;5091061;28;20638;-73
2024/02/03 09:29:20;;;;;;;12.17;10.00;;;10.50;99.90;;;;;;5090771;28;20709;-73
2024/02/03 09:31:46;;;;;;;11.50;10.30;;;10.40;99.90;;;;;;5089752;28;20177;-74
2024/02/03 09:34:11;;;;;;;14.93;10.37;;;10.40;99.90;;;;;;5091264;28;20572;-74
2024/02/03 09:36:40;;;;;;;13.90;11.43;;;10.40;99.90;;;;;;5091133;28;20169;-74
2024/02/03 09:39:07;;;;;;;12.40;11.13;;;10.40;99.90;;;;;;5090557;28;20174;-74
2024/02/03 09:41:33;;;;;;;13.93;11.80;;;10.30;99.90;;;;;;5079743;28;20633;-74
2024/02/03 09:43:59;;;;;;;13.00;11.03;;;10.30;99.90;;;;;;5090741;28;20232;-75
2024/02/03 09:46:25;;;;;;;12.47;10.93;;;10.30;99.90;;;;;;5090745;28;20216;-74
2024/02/03 09:48:50;;;;;;;13.70;12.30;;;10.30;99.90;;;;;;5089989;28;20188;-74
2024/02/03 09:51:16;;;;;;;14.00;11.23;;;10.30;99.90;;;;;;5090805;28;20181;-74
2024/02/03 09:53:44;;;;;;;15.33;11.67;;;10.20;99.90;;;;;;5090897;28;20209;-73
2024/02/03 09:56:10;;;;;;;18.47;12.40;;;10.10;99.90;;;;;;5090562;28;20177;-73
2024/02/03 09:58:36;;;;;;;15.83;13.03;;;10.10;99.90;;;;;;5090880;28;20268;-74
2024/02/03 10:01:02;;;;;;;16.13;12.43;;;10.10;99.90;;;;;;5090408;28;20582;-73
2024/02/03 10:03:27;;;;;;;16.00;12.77;;;10.10;99.90;;;;;;5090756;28;20812;-74
2024/02/03 10:06:02;;;;;;;14.03;12.07;;;10.10;99.90;;;;;;5090880;28;20178;-73
2024/02/03 10:08:28;;;;;;;12.53;10.97;;;10.10;99.90;;;;;;5090710;28;20184;-73
2024/02/03 10:10:55;;;;;;;13.93;11.90;;;10.10;99.90;;;;;;5090478;28;20234;-75
2024/02/03 10:13:22;;;;;;;13.90;11.90;;;10.10;99.90;;;;;;5091310;28;20222;-75
2024/02/03 10:15:59;;;;;;;15.17;12.63;;;10.10;99.90;;;;;;5092176;28;20177;-74
2024/02/03 10:18:25;;;;;;;19.77;14.37;;;10.20;99.90;;;;;;5090912;28;20172;-74
2024/02/03 10:20:51;;;;;;;14.37;12.50;;;10.20;99.90;;;;;;5090063;28;20225;-74
2024/02/03 10:23:16;;;;;;;16.30;12.00;;;10.30;99.90;;;;;;5090544;28;20203;-74
2024/02/03 10:25:43;;;;;;;18.97;14.53;;;10.30;99.90;;;;;;5091083;28;20174;-75
2024/02/03 10:28:09;;;;;;;17.10;13.00;;;10.30;99.90;;;;;;5090229;28;20208;-75
2024/02/03 10:30:36;;;;;;;18.13;13.43;;;10.40;99.90;;;;;;5090116;28;20224;-74
2024/02/03 10:33:06;;;;;;;14.20;12.70;;;10.50;99.90;;;;;;5090719;28;20543;-75
2024/02/03 10:35:33;;;;;;;18.10;13.20;;;10.60;99.90;;;;;;5090678;28;20341;-74
2024/02/03 10:37:59;;;;;;;15.47;11.60;;;10.70;99.90;;;;;;5090936;28;20230;-74
2024/02/03 10:40:33;;;;;;;16.80;12.00;;;10.60;99.90;;;;;;5090487;28;20232;-74
2024/02/03 10:42:59;;;;;;;15.40;12.10;;;10.60;99.90;;;;;;5090731;28;20459;-74
2024/02/03 10:45:26;;;;;;;18.60;12.80;;;10.50;99.90;;;;;;5090487;28;20193;-74
2024/02/03 10:47:54;;;;;;;15.90;12.10;;;10.50;99.90;;;;;;5090940;28;20478;-75
2024/02/03 10:50:23;;;;;;;14.17;11.97;;;10.50;99.90;;;;;;5093591;28;20658;-74
2024/02/03 10:52:52;;;;;;;14.07;12.10;;;10.40;99.90;;;;;;5094685;28;20542;-74
2024/02/03 10:55:19;;;;;;;14.33;11.37;;;10.40;99.90;;;;;;5093518;28;20414;-75
2024/02/03 10:57:48;;;;;;;13.70;12.07;;;10.40;99.90;;;;;;5094502;28;20199;-75
2024/02/03 11:00:17;;;;;;;16.53;12.97;;;10.30;99.90;;;;;;5093694;28;20239;-74
2024/02/03 11:02:52;;;;;;;15.50;13.33;;;10.30;99.90;;;;;;5093847;28;20180;-76
2024/02/03 11:05:21;;;;;;;15.23;12.63;;;10.30;99.90;;;;;;5093195;28;20246;-74
2024/02/03 11:07:48;;;;;;;16.53;12.70;;;10.40;99.90;;;;;;5092918;28;20173;-74
2024/02/03 11:10:14;;;;;;;15.30;12.20;;;10.40;99.90;;;;;;5093610;28;20666;-75
2024/02/03 11:12:40;;;;;;;14.90;12.80;;;10.40;99.90;;;;;;5093916;28;20169;-74
2024/02/03 11:15:10;;;;;;;17.17;12.83;;;10.50;99.90;;;;;;5093936;28;20711;-73
2024/02/03 11:17:36;;;;;;;14.97;11.97;;;10.50;99.90;;;;;;5093627;28;20180;-74
2024/02/03 11:20:06;;;;;;;16.63;11.60;;;10.60;99.90;;;;;;5093649;28;20197;-74
2024/02/03 11:22:32;;;;;;;18.23;12.40;;;10.60;99.90;;;;;;5092330;28;20170;-74
2024/02/03 11:24:58;;;;;;;14.77;12.03;;;10.70;99.90;;;;;;5093586;28;20198;-74
2024/02/03 11:27:24;;;;;;;14.20;11.23;;;10.70;99.90;;;;;;5093722;28;20539;-74
2024/02/03 11:29:49;;;;;;;18.47;10.87;;;10.70;99.90;;;;;;5093583;28;20170;-74
2024/02/03 11:32:15;;;;;;;12.43;10.90;;;10.80;99.90;;;;;;5092187;28;20189;-75
2024/02/03 11:34:41;;;;;;;11.33;10.20;;;10.90;99.90;;;;;;5094460;28;20201;-74
2024/02/03 11:37:09;;;;;;;14.03;11.07;;;10.90;99.90;;;;;;5095836;28;20177;-73
2024/02/03 11:39:37;;;;;;;13.50;10.73;;;10.90;99.90;;;;;;5094150;28;20273;-73
2024/02/03 11:42:03;;;;;;;13.23;10.90;;;10.90;99.90;;;;;;5093900;28;20169;-74
2024/02/03 11:44:47;;;;;;;14.73;11.33;;;11.00;99.90;;;;;;5093487;28;20199;-74
2024/02/03 11:47:18;;;;;;;13.27;10.73;;;11.10;99.90;;;;;;5073647;28;20240;-74
2024/02/03 11:49:45;;;;;;;12.70;10.83;;;11.20;99.90;;;;;;5071892;28;20182;-74
2024/02/03 11:52:11;;;;;;;14.10;10.13;;;11.20;99.90;;;;;;5073023;28;20181;-75
2024/02/03 11:54:37;;;;;;;11.57;10.37;;;11.20;99.90;;;;;;5072575;28;20682;-74
2024/02/03 11:57:02;;;;;;;11.23;10.03;;;11.20;99.90;;;;;;5073687;28;20244;-74
2024/02/03 11:59:29;;;;;;;11.27;10.07;;;11.20;99.90;;;;;;5073494;28;20183;-74
2024/02/03 12:01:58;;;;;;;13.70;11.53;;;11.20;99.90;;;;;;5093244;28;20173;-74
2024/02/03 12:04:25;;;;;;;11.63;10.40;;;11.10;99.90;;;;;;5093459;28;20189;-74
2024/02/03 12:06:51;;;;;;;11.83;10.63;;;11.10;99.90;;;;;;5093266;28;20413;-74
2024/02/03 12:09:18;;;;;;;10.67;9.57;;;11.10;99.90;;;;;;5091450;28;20181;-74
2024/02/03 12:11:49;;;;;;;10.73;9.13;;;11.00;99.90;;;;;;5093312;28;20169;-74
2024/02/03 12:14:19;;;;;;;12.50;9.83;;;11.00;99.90;;;;;;5092826;28;20276;-74
2024/02/03 12:16:46;;;;;;;10.73;9.70;;;11.00;99.90;;;;;;5093032;28;20162;-74
2024/02/03 12:19:11;;;;;;;10.37;9.37;;;11.10;99.90;;;;;;5092829;28;20169;-74
2024/02/03 12:21:38;;;;;;;11.17;9.50;;;11.10;99.90;;;;;;5092934;28;20229;-74
2024/02/03 12:24:09;;;;;;;11.47;10.30;;;10.90;99.90;;;;;;5092771;28;20258;-74
2024/02/03 12:26:35;;;;;;;10.80;9.63;;;10.90;99.90;;;;;;5092882;28;20214;-74
2024/02/03 12:29:01;;;;;;;12.77;9.67;;;10.90;99.90;;;;;;5091207;28;20543;-74